Time;durP1;ratioP1;P1;durP2;ratioP2;P2;SDS_P1;SDS_P2;PMS_P1;PMS_P2;Temp;Humidity;BMP_temperature;BMP_pressure;BME280_temperature;BME280_humidity;BME280_pressure;Samples;Min_cycle;Max_cycle;Signal;HPM_P1;HPM_P2
2021/10/17 00:02:21;;;;;;;13.45;5.18;;;;;;;8.62;78.69;102187.13;5093817;28;20035;-76
2021/10/17 00:04:47;;;;;;;17.73;4.80;;;;;;;8.58;78.52;102178.53;5093824;28;20337;-77
2021/10/17 00:07:13;;;;;;;18.77;5.43;;;;;;;8.53;78.45;102177.94;5093253;28;20065;-76
2021/10/17 00:09:39;;;;;;;18.30;5.40;;;;;;;8.52;78.56;102181.53;5093772;28;20085;-76
2021/10/17 00:12:07;;;;;;;19.92;5.78;;;;;;;8.53;77.70;102185.06;5093066;28;20058;-76
2021/10/17 00:14:32;;;;;;;20.83;6.10;;;;;;;8.53;79.04;102185.06;5094002;28;20085;-76
2021/10/17 00:16:58;;;;;;;14.00;5.22;;;;;;;8.50;78.98;102178.13;5093515;28;20032;-82
2021/10/17 00:19:23;;;;;;;9.43;5.20;;;;;;;8.48;79.37;102172.06;5093655;28;20024;-76
2021/10/17 00:21:49;;;;;;;16.50;5.53;;;;;;;8.47;79.24;102175.66;5093494;28;20024;-76
2021/10/17 00:24:14;;;;;;;8.75;4.45;;;;;;;8.47;79.08;102173.84;5092821;28;20066;-75
2021/10/17 00:26:40;;;;;;;18.10;5.88;;;;;;;8.49;79.45;102179.06;5093496;28;20024;-76
2021/10/17 00:29:06;;;;;;;15.35;5.90;;;;;;;8.50;80.46;102185.25;5092817;28;20071;-77
2021/10/17 00:31:32;;;;;;;15.10;5.60;;;;;;;8.53;79.44;102179.75;5075361;28;20039;-76
2021/10/17 00:33:57;;;;;;;12.13;5.70;;;;;;;8.57;79.24;102184.78;5093364;28;20023;-76
2021/10/17 00:36:26;;;;;;;18.23;6.10;;;;;;;8.62;78.96;102180.03;5092678;28;20031;-76
2021/10/17 00:38:51;;;;;;;18.17;5.78;;;;;;;8.65;79.29;102179.00;5093299;28;20027;-76
2021/10/17 00:41:17;;;;;;;18.63;6.57;;;;;;;8.66;79.93;102180.72;5074474;28;20115;-76
2021/10/17 00:43:42;;;;;;;13.27;5.90;;;;;;;8.66;79.17;102172.75;5093010;28;20028;-76
2021/10/17 00:46:19;;;;;;;16.88;6.00;;;;;;;8.68;79.50;102170.84;5092595;28;20040;-76
2021/10/17 00:48:45;;;;;;;14.80;5.82;;;;;;;8.71;79.35;102175.13;5092793;28;20024;-76
2021/10/17 00:51:11;;;;;;;18.90;6.18;;;;;;;8.72;79.27;102169.72;5092404;28;20020;-76
2021/10/17 00:53:37;;;;;;;16.25;5.10;;;;;;;8.74;78.80;102177.56;5093027;28;20115;-77
2021/10/17 00:56:03;;;;;;;19.27;5.55;;;;;;;8.75;79.08;102169.53;5092536;28;20059;-78
2021/10/17 00:58:28;;;;;;;23.77;6.20;;;;;;;8.76;78.97;102165.94;5092708;28;20032;-76
2021/10/17 01:00:54;;;;;;;12.15;5.43;;;;;;;8.76;79.78;102165.06;5092888;28;20038;-76
2021/10/17 01:03:20;;;;;;;11.18;6.43;;;;;;;8.75;80.51;102161.56;5092156;28;20028;-75
2021/10/17 01:05:45;;;;;;;18.45;6.00;;;;;;;8.74;79.68;102159.84;5093213;28;20366;-75
2021/10/17 01:08:11;;;;;;;15.50;6.25;;;;;;;8.75;79.44;102158.06;5092224;28;20054;-76
2021/10/17 01:10:37;;;;;;;16.90;5.75;;;;;;;8.76;79.94;102165.94;5093141;28;20077;-76
2021/10/17 01:13:02;;;;;;;17.02;5.95;;;;;;;8.77;80.24;102158.81;5092491;28;20089;-76
2021/10/17 01:15:27;;;;;;;23.33;6.88;;;;;;;8.77;79.64;102157.00;5074587;28;20066;-76
2021/10/17 01:17:53;;;;;;;19.65;6.30;;;;;;;8.77;79.90;102162.31;5092863;28;20035;-76
2021/10/17 01:20:19;;;;;;;20.02;6.47;;;;;;;8.77;79.97;102159.66;5092183;28;20055;-76
2021/10/17 01:22:44;;;;;;;16.92;6.25;;;;;;;8.77;80.77;102154.34;5092704;28;20035;-76
2021/10/17 01:25:10;;;;;;;15.57;6.40;;;;;;;8.76;80.71;102151.78;5092221;28;20101;-77
2021/10/17 01:27:36;;;;;;;14.40;6.65;;;;;;;8.74;80.83;102151.88;5092345;28;20024;-76
2021/10/17 01:30:03;;;;;;;21.42;6.95;;;;;;;8.73;80.97;102149.31;5092435;28;20108;-76
2021/10/17 01:32:29;;;;;;;18.58;6.70;;;;;;;8.72;81.02;102151.13;5074087;28;20371;-76
2021/10/17 01:34:54;;;;;;;23.55;7.22;;;;;;;8.70;81.14;102144.22;5092592;28;20032;-76
2021/10/17 01:37:19;;;;;;;21.67;6.78;;;;;;;8.71;80.71;102141.47;5092010;28;20460;-76
2021/10/17 01:39:45;;;;;;;17.10;6.60;;;;;;;8.73;80.30;102144.88;5092763;28;20453;-76
2021/10/17 01:42:10;;;;;;;21.35;7.32;;;;;;;8.74;80.34;102148.38;5091886;28;20519;-77
2021/10/17 01:44:37;;;;;;;15.98;7.30;;;;;;;8.73;81.12;102144.03;5074616;28;20346;-76
2021/10/17 01:47:06;;;;;;;16.25;7.13;;;;;;;8.71;81.43;102144.13;5092253;28;20028;-76
2021/10/17 01:49:31;;;;;;;19.02;7.38;;;;;;;8.69;81.65;102146.03;5091599;28;20028;-76
2021/10/17 01:51:57;;;;;;;18.92;7.45;;;;;;;8.68;81.57;102143.47;5092523;28;20413;-76
2021/10/17 01:54:23;;;;;;;20.38;7.07;;;;;;;8.65;81.94;102136.53;5091776;28;20426;-76
2021/10/17 01:56:49;;;;;;;17.45;6.50;;;;;;;8.64;81.62;102145.44;5092224;28;20028;-76
2021/10/17 01:59:14;;;;;;;18.27;7.32;;;;;;;8.63;82.15;102143.75;5092486;28;20156;-76
2021/10/17 02:01:40;;;;;;;21.05;7.20;;;;;;;8.60;81.96;102136.81;5095970;28;20499;-76
2021/10/17 02:04:05;;;;;;;19.85;7.45;;;;;;;8.58;82.00;102143.16;5096160;28;20036;-76
2021/10/17 02:06:31;;;;;;;16.90;7.75;;;;;;;8.59;81.00;102137.75;5095522;28;20059;-76
2021/10/17 02:08:57;;;;;;;15.18;7.22;;;;;;;8.61;81.15;102146.50;5096042;28;20028;-76
2021/10/17 02:11:23;;;;;;;21.90;7.32;;;;;;;8.62;81.36;102142.03;5095425;28;20024;-76
2021/10/17 02:13:49;;;;;;;21.20;7.65;;;;;;;8.62;82.22;102132.25;5095739;28;20035;-76
2021/10/17 02:16:14;;;;;;;17.30;8.23;;;;;;;8.60;83.14;102136.81;5095359;28;20035;-76
2021/10/17 02:18:40;;;;;;;17.67;7.20;;;;;;;8.60;82.23;102139.47;5095844;28;20024;-76
2021/10/17 02:21:05;;;;;;;20.83;7.50;;;;;;;8.60;82.12;102138.63;5095551;28;20036;-76
2021/10/17 02:23:32;;;;;;;19.98;7.05;;;;;;;8.60;82.91;102142.13;5095242;28;20032;-76
2021/10/17 02:25:58;;;;;;;15.60;6.95;;;;;;;8.59;82.91;102131.63;5095686;28;20032;-75
2021/10/17 02:28:23;;;;;;;16.67;6.88;;;;;;;8.59;82.04;102136.91;5095203;28;20508;-76
2021/10/17 02:30:49;;;;;;;15.13;6.60;;;;;;;8.61;82.05;102130.59;5096022;28;20483;-76
2021/10/17 02:33:14;;;;;;;19.73;6.88;;;;;;;8.62;82.60;102137.56;5094672;28;20020;-76
2021/10/17 02:35:40;;;;;;;18.35;6.43;;;;;;;8.62;81.89;102131.41;5095793;28;20055;-76
2021/10/17 02:38:05;;;;;;;18.75;7.32;;;;;;;8.61;82.09;102130.59;5095633;28;20067;-76
2021/10/17 02:40:31;;;;;;;16.17;7.18;;;;;;;8.60;82.54;102139.47;5094878;28;20020;-76
2021/10/17 02:42:56;;;;;;;21.35;6.82;;;;;;;8.61;82.21;102133.25;5095778;28;20076;-76
2021/10/17 02:45:22;;;;;;;21.17;6.40;;;;;;;8.62;82.71;102126.13;5094930;28;20511;-76
2021/10/17 02:47:48;;;;;;;14.13;5.93;;;;;;;8.64;82.43;102129.50;5095742;28;20463;-76
2021/10/17 02:50:13;;;;;;;17.60;6.95;;;;;;;8.65;82.25;102110.84;5095221;28;20028;-76
2021/10/17 02:52:39;;;;;;;17.10;6.43;;;;;;;8.69;81.84;102114.19;5076629;28;20035;-76
2021/10/17 02:55:04;;;;;;;16.77;6.55;;;;;;;8.71;81.61;102109.63;5095409;28;20058;-76
2021/10/17 02:57:30;;;;;;;19.30;6.90;;;;;;;8.73;80.89;102110.41;5094927;28;20364;-76
2021/10/17 02:59:55;;;;;;;21.55;7.15;;;;;;;8.75;80.33;102105.00;5095126;28;20039;-76
2021/10/17 03:02:21;;;;;;;20.80;6.75;;;;;;;8.75;81.08;102105.84;5094651;28;20111;-76
2021/10/17 03:04:46;;;;;;;18.25;7.10;;;;;;;8.78;80.43;102107.44;5095015;28;20038;-75
2021/10/17 03:07:12;;;;;;;17.30;6.53;;;;;;;8.79;79.66;102107.34;5094647;28;20031;-76
2021/10/17 03:09:37;;;;;;;18.65;6.65;;;;;;;8.80;80.79;102101.06;5076219;28;20035;-76
2021/10/17 03:12:03;;;;;;;18.92;7.22;;;;;;;8.80;80.43;102090.47;5094717;28;20102;-76
2021/10/17 03:14:28;;;;;;;24.88;7.53;;;;;;;8.79;80.18;102099.41;5094006;28;20356;-76
2021/10/17 03:16:54;;;;;;;15.15;7.03;;;;;;;8.81;80.55;102097.47;5094723;28;20028;-76
2021/10/17 03:19:19;;;;;;;18.15;7.60;;;;;;;8.81;79.96;102096.63;5094202;28;20031;-76
2021/10/17 03:21:45;;;;;;;14.32;7.70;;;;;;;8.83;80.12;102100.03;5094379;28;20039;-76
2021/10/17 03:24:11;;;;;;;23.00;7.75;;;;;;;8.82;81.07;102099.19;5094655;28;20020;-76
2021/10/17 03:26:36;;;;;;;25.33;7.15;;;;;;;8.80;81.52;102092.28;5094080;28;20371;-75
2021/10/17 03:29:02;;;;;;;23.70;7.80;;;;;;;8.77;81.43;102098.63;5094401;28;20078;-76
2021/10/17 03:31:27;;;;;;;23.05;7.60;;;;;;;8.75;81.90;102097.88;5093913;28;20039;-76
2021/10/17 03:33:52;;;;;;;20.05;7.80;;;;;;;8.75;81.21;102094.38;5094188;28;20036;-76
2021/10/17 03:36:18;;;;;;;19.50;8.20;;;;;;;8.76;81.52;102101.38;5094349;28;20478;-76
2021/10/17 03:38:43;;;;;;;21.10;7.82;;;;;;;8.79;79.63;102087.91;5093721;28;20028;-75
2021/10/17 03:41:11;;;;;;;18.70;8.18;;;;;;;8.83;79.98;102084.13;5094130;28;20110;-76
2021/10/17 03:43:37;;;;;;;17.05;7.90;;;;;;;8.86;79.54;102083.06;5093392;28;20511;-76
2021/10/17 03:46:02;;;;;;;19.52;7.88;;;;;;;8.85;79.92;102081.34;5094242;28;20063;-76
2021/10/17 03:48:27;;;;;;;17.90;8.48;;;;;;;8.86;79.51;102086.56;5093600;28;20028;-76
2021/10/17 03:50:53;;;;;;;21.17;8.85;;;;;;;8.88;79.45;102079.34;5094337;28;20106;-76
2021/10/17 03:53:19;;;;;;;22.15;8.40;;;;;;;8.87;78.94;102072.34;5094150;28;20052;-76
2021/10/17 03:55:44;;;;;;;25.10;8.52;;;;;;;8.87;80.10;102082.09;5093426;28;20345;-76
2021/10/17 03:58:09;;;;;;;22.40;8.50;;;;;;;8.87;78.67;102079.44;5094004;28;20367;-76
2021/10/17 04:00:35;;;;;;;18.77;8.45;;;;;;;8.88;79.31;102086.47;5092997;28;20119;-76
2021/10/17 04:03:01;;;;;;;23.55;9.40;;;;;;;8.87;79.23;102082.97;5093873;28;20061;-76
2021/10/17 04:05:26;;;;;;;19.98;8.82;;;;;;;8.86;80.40;102078.59;5093288;28;20039;-76
2021/10/17 04:07:51;;;;;;;22.05;8.52;;;;;;;8.82;81.01;102069.13;5094106;28;20417;-76
2021/10/17 04:10:17;;;;;;;23.80;9.10;;;;;;;8.80;80.44;102073.69;5093440;28;20028;-76
2021/10/17 04:12:42;;;;;;;24.92;8.75;;;;;;;8.78;80.19;102065.84;5093113;28;20032;-76
2021/10/17 04:15:09;;;;;;;24.52;9.23;;;;;;;8.86;78.94;102072.47;5093200;28;20036;-75
2021/10/17 04:17:34;;;;;;;20.63;8.63;;;;;;;8.90;78.76;102066.00;5092928;28;20058;-76
2021/10/17 04:20:00;;;;;;;23.67;8.45;;;;;;;8.91;78.61;102068.56;5075742;28;20464;-76
2021/10/17 04:22:25;;;;;;;25.40;8.43;;;;;;;8.91;80.28;102070.34;5092144;28;20032;-76
2021/10/17 04:24:50;;;;;;;21.75;8.40;;;;;;;8.91;79.03;102065.91;5093266;28;20028;-75
2021/10/17 04:27:16;;;;;;;27.63;9.40;;;;;;;8.93;78.71;102066.66;5093602;28;20039;-76
2021/10/17 04:29:42;;;;;;;20.13;9.10;;;;;;;8.95;79.36;102061.25;5092968;28;20040;-76
2021/10/17 04:32:08;;;;;;;26.77;9.35;;;;;;;8.92;78.97;102078.22;5093234;28;20028;-76
2021/10/17 04:34:34;;;;;;;20.92;9.30;;;;;;;8.90;78.80;102071.31;5092743;28;20028;-76
2021/10/17 04:37:03;;;;;;;29.15;9.82;;;;;;;8.87;81.09;102072.34;5093319;28;20028;-75
2021/10/17 04:39:29;;;;;;;31.13;9.15;;;;;;;8.85;80.40;102078.72;5092955;28;20070;-76
2021/10/17 04:41:54;;;;;;;23.42;9.52;;;;;;;8.83;79.94;102084.97;5092821;28;20383;-76
2021/10/17 04:44:20;;;;;;;28.58;9.45;;;;;;;8.80;80.18;102079.84;5093538;28;20115;-76
2021/10/17 04:46:46;;;;;;;23.83;9.30;;;;;;;8.78;80.91;102084.41;5092581;28;20028;-76
2021/10/17 04:49:11;;;;;;;22.75;9.45;;;;;;;8.76;81.15;102094.28;5075024;28;20070;-76
2021/10/17 04:51:37;;;;;;;20.95;9.25;;;;;;;8.73;81.13;102081.22;5092377;28;20039;-75
2021/10/17 04:54:02;;;;;;;22.08;8.70;;;;;;;8.72;80.51;102090.09;5092877;28;20028;-75
2021/10/17 04:56:28;;;;;;;27.15;9.60;;;;;;;8.72;80.77;102086.56;5092552;28;20039;-77
2021/10/17 04:58:53;;;;;;;23.05;8.95;;;;;;;8.72;81.72;102083.94;5092935;28;20360;-75
2021/10/17 05:01:19;;;;;;;20.80;9.15;;;;;;;8.70;82.13;102081.38;5092965;28;20032;-76
2021/10/17 05:03:44;;;;;;;29.15;9.55;;;;;;;8.70;81.63;102084.03;5092196;28;20376;-75
2021/10/17 05:06:12;;;;;;;21.60;9.85;;;;;;;8.68;82.23;102077.97;5074993;28;20028;-76
2021/10/17 05:08:38;;;;;;;22.58;9.25;;;;;;;8.68;82.56;102085.94;5091921;28;20031;-76
2021/10/17 05:11:04;;;;;;;25.08;9.48;;;;;;;8.65;82.62;102086.97;5092688;28;20040;-75
2021/10/17 05:13:30;;;;;;;27.85;10.05;;;;;;;8.66;82.32;102085.19;5092319;28;20038;-78
2021/10/17 05:15:55;;;;;;;25.60;9.15;;;;;;;8.68;82.35;102085.94;5093123;28;20032;-76
2021/10/17 05:18:21;;;;;;;21.05;8.95;;;;;;;8.70;82.54;102085.84;5092810;28;20032;-76
2021/10/17 05:20:46;;;;;;;20.75;9.27;;;;;;;8.70;82.17;102078.72;5091853;28;20077;-76
2021/10/17 05:23:13;;;;;;;24.17;9.60;;;;;;;8.71;82.75;102080.44;5092798;28;20119;-76
2021/10/17 05:25:40;;;;;;;19.55;8.85;;;;;;;8.72;82.80;102086.56;5091995;28;20093;-76
2021/10/17 05:28:06;;;;;;;24.15;8.68;;;;;;;8.73;81.43;102085.63;5092443;28;20155;-77
2021/10/17 05:30:33;;;;;;;19.92;9.15;;;;;;;8.73;81.52;102091.81;5091985;28;20032;-77
2021/10/17 05:32:59;;;;;;;16.70;8.52;;;;;;;8.72;82.24;102089.22;5092788;28;20026;-76
2021/10/17 05:35:25;;;;;;;24.70;9.68;;;;;;;8.70;83.64;102088.50;5096751;28;20095;-76
2021/10/17 05:37:50;;;;;;;22.15;9.00;;;;;;;8.67;83.43;102091.34;5096054;28;20031;-76
2021/10/17 05:40:15;;;;;;;24.98;9.40;;;;;;;8.63;83.40;102091.53;5096659;28;20031;-76
2021/10/17 05:42:41;;;;;;;23.30;8.80;;;;;;;8.63;82.94;102099.50;5096026;28;20043;-75
2021/10/17 05:45:07;;;;;;;25.35;9.32;;;;;;;8.63;82.89;102096.84;5096815;28;20081;-76
2021/10/17 05:47:33;;;;;;;21.27;9.52;;;;;;;8.63;83.01;102088.03;5096120;28;20099;-81
2021/10/17 05:49:58;;;;;;;28.98;9.73;;;;;;;8.62;83.36;102091.63;5096367;28;20112;-75
2021/10/17 05:52:23;;;;;;;25.15;10.25;;;;;;;8.59;83.55;102090.00;5096646;28;20024;-76
2021/10/17 05:54:49;;;;;;;27.63;9.82;;;;;;;8.58;83.26;102093.63;5095748;28;20031;-75
2021/10/17 05:57:14;;;;;;;21.73;9.32;;;;;;;8.57;83.58;102101.66;5096303;28;20024;-76
2021/10/17 05:59:39;;;;;;;21.95;9.07;;;;;;;8.56;83.47;102100.81;5077604;28;20160;-75
2021/10/17 06:02:05;;;;;;;31.10;9.15;;;;;;;8.56;82.91;102106.13;5096233;28;20059;-76
2021/10/17 06:04:30;;;;;;;26.55;10.15;;;;;;;8.57;83.30;102105.19;5096116;28;20369;-76
2021/10/17 06:06:56;;;;;;;23.25;10.50;;;;;;;8.58;83.56;102108.69;5095381;28;20028;-76
2021/10/17 06:09:21;;;;;;;24.20;9.05;;;;;;;8.59;83.88;102108.59;5096024;28;20368;-76
2021/10/17 06:11:47;;;;;;;22.65;9.70;;;;;;;8.60;83.59;102109.47;5095414;28;20028;-76
2021/10/17 06:14:12;;;;;;;20.33;8.82;;;;;;;8.62;82.51;102108.38;5095992;28;20437;-75
2021/10/17 06:16:37;;;;;;;24.55;9.00;;;;;;;8.65;82.40;102104.69;5095283;28;20028;-76
2021/10/17 06:19:03;;;;;;;23.13;8.80;;;;;;;8.68;82.61;102111.63;5096012;28;20097;-76
2021/10/17 06:21:28;;;;;;;23.02;8.90;;;;;;;8.69;82.53;102110.66;5095646;28;20103;-76
2021/10/17 06:23:53;;;;;;;24.98;8.10;;;;;;;8.70;82.78;102112.38;5094916;28;20460;-76
2021/10/17 06:26:19;;;;;;;22.17;8.60;;;;;;;8.70;83.31;102117.69;5095977;28;20513;-76
2021/10/17 06:28:44;;;;;;;21.75;8.20;;;;;;;8.75;80.94;102124.41;5094692;28;20044;-76
2021/10/17 06:31:09;;;;;;;19.08;8.10;;;;;;;8.79;81.72;102130.38;5095591;28;20329;-76
2021/10/17 06:33:35;;;;;;;17.17;8.10;;;;;;;8.84;81.53;102122.97;5095532;28;20039;-76
2021/10/17 06:36:00;;;;;;;22.33;8.30;;;;;;;8.90;81.34;102129.72;5095038;28;20032;-77
2021/10/17 06:38:25;;;;;;;16.35;7.55;;;;;;;8.93;80.97;102122.41;5095530;28;20052;-76
2021/10/17 06:40:51;;;;;;;20.42;7.35;;;;;;;8.99;79.89;102122.00;5094900;28;20039;-77
2021/10/17 06:43:16;;;;;;;18.20;7.40;;;;;;;9.09;79.73;102124.94;5095560;28;20032;-76
2021/10/17 06:45:42;;;;;;;20.88;7.25;;;;;;;9.16;78.48;102128.03;5093985;28;20064;-77
2021/10/17 06:48:07;;;;;;;19.98;7.43;;;;;;;9.21;79.01;102133.06;5095102;28;20082;-77
2021/10/17 06:50:32;;;;;;;18.42;6.80;;;;;;;9.24;78.14;102133.72;5095041;28;20464;-77
2021/10/17 06:52:58;;;;;;;15.68;6.22;;;;;;;9.29;77.73;102128.97;5094654;28;20028;-77
2021/10/17 06:55:23;;;;;;;18.85;7.13;;;;;;;9.35;78.01;102122.41;5095170;28;20465;-76
2021/10/17 06:57:49;;;;;;;22.80;6.97;;;;;;;9.35;78.05;102131.22;5094251;28;20543;-76
2021/10/17 07:00:14;;;;;;;21.20;6.57;;;;;;;9.37;77.74;102120.47;5095183;28;20035;-77
2021/10/17 07:02:39;;;;;;;18.40;6.38;;;;;;;9.40;78.03;102124.75;5095044;28;20036;-76
2021/10/17 07:05:05;;;;;;;23.17;6.93;;;;;;;9.43;77.44;102122.75;5094378;28;20032;-76
2021/10/17 07:07:31;;;;;;;17.10;6.75;;;;;;;9.48;77.05;102120.66;5094875;28;20028;-75
2021/10/17 07:09:56;;;;;;;15.05;6.90;;;;;;;9.52;76.91;102138.09;5094409;28;20032;-76
2021/10/17 07:12:22;;;;;;;25.42;6.53;;;;;;;9.56;77.40;102133.44;5094924;28;20028;-77
2021/10/17 07:14:47;;;;;;;20.30;6.97;;;;;;;9.60;77.00;102124.31;5094389;28;20367;-77
2021/10/17 07:17:12;;;;;;;13.73;6.10;;;;;;;9.63;77.45;102129.41;5094744;28;20483;-76
2021/10/17 07:19:38;;;;;;;14.85;5.68;;;;;;;9.66;76.54;102131.03;5076516;28;20025;-76
2021/10/17 07:22:03;;;;;;;14.65;6.22;;;;;;;9.68;77.29;102124.63;5093703;28;20077;-75
2021/10/17 07:24:29;;;;;;;18.58;6.28;;;;;;;9.70;76.17;102130.72;5093898;28;20414;-75
2021/10/17 07:26:54;;;;;;;20.33;6.05;;;;;;;9.75;76.31;102130.41;5093873;28;20024;-76
2021/10/17 07:29:19;;;;;;;26.48;7.18;;;;;;;9.79;76.71;102129.25;5094545;28;20468;-74
2021/10/17 07:31:45;;;;;;;16.40;6.30;;;;;;;9.87;75.33;102128.75;5093880;28;20067;-76
2021/10/17 07:34:10;;;;;;;17.23;5.38;;;;;;;9.95;76.24;102137.03;5094428;28;20051;-77
2021/10/17 07:36:35;;;;;;;18.13;5.68;;;;;;;10.00;73.85;102128.75;5094132;28;20016;-76
2021/10/17 07:39:01;;;;;;;16.98;6.05;;;;;;;10.10;73.80;102139.63;5093960;28;20077;-78
2021/10/17 07:41:26;;;;;;;16.50;6.00;;;;;;;10.19;74.06;102136.34;5094320;28;20034;-76
2021/10/17 07:43:52;;;;;;;15.85;6.35;;;;;;;10.27;73.47;102138.47;5075511;28;20023;-77
2021/10/17 07:46:17;;;;;;;15.50;5.93;;;;;;;10.35;73.58;102141.50;5094133;28;20024;-77
2021/10/17 07:48:42;;;;;;;14.13;5.53;;;;;;;10.43;72.35;102149.78;5093923;28;20102;-77
2021/10/17 07:51:09;;;;;;;12.80;5.32;;;;;;;10.47;72.21;102153.94;5075309;28;20024;-77
2021/10/17 07:53:34;;;;;;;16.00;5.70;;;;;;;10.55;71.51;102150.75;5093619;28;20449;-75
2021/10/17 07:56:00;;;;;;;16.23;6.43;;;;;;;10.62;72.92;102148.53;5093277;28;20032;-75
2021/10/17 07:58:26;;;;;;;21.17;6.78;;;;;;;10.66;73.36;102150.84;5093793;28;20020;-80
2021/10/17 08:00:53;;;;;;;14.80;5.65;;;;;;;10.69;73.36;102137.34;5075352;28;20122;-76
2021/10/17 08:03:18;;;;;;;21.73;5.40;;;;;;;10.73;72.88;102152.13;5093551;28;20414;-74
2021/10/17 08:05:44;;;;;;;16.17;6.05;;;;;;;10.77;73.13;102144.78;5093359;28;20085;-75
2021/10/17 08:08:09;;;;;;;16.95;6.15;;;;;;;10.82;72.22;102150.59;5074929;28;20123;-75
2021/10/17 08:10:35;;;;;;;16.95;5.68;;;;;;;10.84;72.54;102147.84;5093345;28;20461;-76
2021/10/17 08:13:01;;;;;;;17.42;6.55;;;;;;;10.87;72.55;102142.31;5092785;28;20376;-75
2021/10/17 08:15:27;;;;;;;18.88;6.30;;;;;;;10.90;72.45;102150.94;5093479;28;20471;-77
2021/10/17 08:17:54;;;;;;;13.07;5.78;;;;;;;10.93;71.24;102148.03;5092879;28;20039;-77
2021/10/17 08:20:19;;;;;;;17.05;6.25;;;;;;;10.99;72.17;102146.75;5093526;28;20024;-77
2021/10/17 08:22:45;;;;;;;15.68;6.10;;;;;;;11.11;70.14;102139.69;5093201;28;20032;-78
2021/10/17 08:25:10;;;;;;;18.73;5.80;;;;;;;11.21;70.34;102139.88;5092544;28;20110;-76
2021/10/17 08:27:39;;;;;;;16.27;5.55;;;;;;;11.35;69.77;102138.88;5093335;28;20031;-77
2021/10/17 08:30:06;;;;;;;16.20;6.00;;;;;;;11.55;69.32;102151.56;5092939;28;20040;-77
2021/10/17 08:32:31;;;;;;;16.98;5.20;;;;;;;11.76;67.68;102143.81;5093294;28;20479;-78
2021/10/17 08:34:57;;;;;;;17.55;6.40;;;;;;;11.93;67.58;102149.72;5093058;28;20059;-77
2021/10/17 08:37:22;;;;;;;16.02;5.60;;;;;;;12.04;66.87;102136.41;5093427;28;20034;-75
2021/10/17 08:39:47;;;;;;;18.23;6.60;;;;;;;12.15;66.36;102140.91;5093361;28;20467;-73
2021/10/17 08:42:13;;;;;;;13.40;5.78;;;;;;;12.12;67.74;102141.16;5092564;28;20024;-75
2021/10/17 08:44:39;;;;;;;16.95;6.10;;;;;;;12.07;64.98;102136.16;5092753;28;20032;-74
2021/10/17 08:47:05;;;;;;;19.92;6.72;;;;;;;12.16;65.45;102138.13;5092150;28;20468;-74
2021/10/17 08:49:31;;;;;;;16.58;5.78;;;;;;;12.30;65.44;102138.88;5092849;28;20028;-77
2021/10/17 08:51:56;;;;;;;12.98;5.63;;;;;;;12.69;66.41;102136.75;5092113;28;20028;-76
2021/10/17 08:54:21;;;;;;;12.75;5.90;;;;;;;12.86;65.31;102138.91;5092774;28;20031;-74
2021/10/17 08:56:47;;;;;;;12.80;6.07;;;;;;;12.98;63.92;102133.59;5092869;28;20031;-77
2021/10/17 08:59:12;;;;;;;18.38;6.15;;;;;;;13.06;64.48;102141.81;5091972;28;20088;-77
2021/10/17 09:01:39;;;;;;;18.27;5.85;;;;;;;13.14;62.07;102141.22;5092903;28;20487;-80
2021/10/17 09:04:07;;;;;;;20.52;5.80;;;;;;;13.37;63.34;102137.53;5092134;28;20028;-77
2021/10/17 09:06:35;;;;;;;17.05;5.60;;;;;;;13.74;61.30;102141.66;5092725;28;20446;-75
2021/10/17 09:09:12;;;;;;;17.02;5.93;;;;;;;14.11;59.46;102143.94;5091713;28;20031;-74
2021/10/17 09:11:46;;;;;;;19.55;7.05;;;;;;;14.38;59.57;102139.88;5092543;28;20093;-74
2021/10/17 09:14:17;;;;;;;14.05;5.95;;;;;;;14.79;56.24;102144.31;5091554;28;20046;-73
2021/10/17 09:16:45;;;;;;;19.80;6.95;;;;;;;15.42;55.03;102150.38;5092724;28;20072;-74
2021/10/17 09:19:16;;;;;;;17.35;5.55;;;;;;;15.86;54.07;102146.34;5091995;28;20024;-74
2021/10/17 09:22:02;;;;;;;15.70;5.18;;;;;;;15.74;54.83;102146.63;5092636;28;20077;-74
2021/10/17 09:24:29;;;;;;;12.77;5.38;;;;;;;15.60;53.75;102143.38;5092604;28;20032;-73
2021/10/17 09:27:05;;;;;;;13.70;5.32;;;;;;;14.87;55.80;102151.69;5092109;28;20028;-77
2021/10/17 09:29:32;;;;;;;15.50;6.28;;;;;;;14.29;58.61;102141.50;5092330;28;20068;-74
2021/10/17 09:31:57;;;;;;;15.80;5.82;;;;;;;13.72;59.12;102147.16;5091860;28;20040;-74
2021/10/17 09:34:29;;;;;;;14.77;5.72;;;;;;;13.76;59.12;102147.72;5092446;28;20178;-73
2021/10/17 09:37:12;;;;;;;18.55;6.28;;;;;;;13.97;59.19;102146.91;5092486;28;20039;-74
2021/10/17 09:39:43;;;;;;;14.98;5.63;;;;;;;13.95;60.19;102152.38;5092769;28;20036;-74
2021/10/17 09:42:17;;;;;;;16.20;5.70;;;;;;;13.75;60.54;102154.91;5091769;28;20035;-73
2021/10/17 09:44:43;;;;;;;13.57;6.07;;;;;;;13.64;60.95;102149.59;5092472;28;20028;-73
2021/10/17 09:47:09;;;;;;;15.18;5.88;;;;;;;13.78;60.38;102150.28;5091740;28;20077;-73
2021/10/17 09:49:35;;;;;;;14.05;6.05;;;;;;;14.25;60.78;102156.13;5092333;28;20444;-74
2021/10/17 09:52:13;;;;;;;15.30;5.72;;;;;;;15.21;55.91;102150.50;5091670;28;20039;-74
2021/10/17 09:54:39;;;;;;;16.17;6.03;;;;;;;16.03;54.07;102144.81;5091900;28;20395;-73
2021/10/17 09:57:06;;;;;;;15.43;6.35;;;;;;;16.46;51.79;102145.25;5091696;28;20024;-74
2021/10/17 09:59:32;;;;;;;14.70;6.45;;;;;;;16.79;51.72;102145.69;5092305;28;20050;-74
2021/10/17 10:01:58;;;;;;;19.35;6.50;;;;;;;16.69;50.29;102144.88;5091988;28;20357;-73
2021/10/17 10:04:25;;;;;;;16.80;6.70;;;;;;;16.37;52.44;102144.28;5092003;28;20109;-74
2021/10/17 10:06:52;;;;;;;13.30;6.97;;;;;;;16.08;51.48;102141.69;5092082;28;20066;-73
2021/10/17 10:09:20;;;;;;;13.73;6.45;;;;;;;15.80;53.57;102140.72;5091676;28;20032;-74
2021/10/17 10:11:46;;;;;;;15.68;7.07;;;;;;;15.41;53.48;102132.63;5074106;28;20024;-74
2021/10/17 10:14:12;;;;;;;15.20;6.93;;;;;;;15.37;55.08;102141.94;5091567;28;20396;-73
2021/10/17 10:16:39;;;;;;;16.98;6.90;;;;;;;15.44;55.42;102149.28;5092080;28;20035;-74
2021/10/17 10:19:07;;;;;;;18.08;7.63;;;;;;;15.24;55.73;102143.03;5091483;28;20024;-74
2021/10/17 10:21:34;;;;;;;18.52;6.75;;;;;;;15.15;55.57;102142.03;5094693;28;20027;-73
2021/10/17 10:24:06;;;;;;;17.15;7.00;;;;;;;15.04;55.33;102149.34;5095391;28;20023;-72
2021/10/17 10:26:33;;;;;;;15.98;6.65;;;;;;;14.99;56.61;102142.53;5095667;28;20081;-73
2021/10/17 10:28:59;;;;;;;15.75;7.20;;;;;;;14.94;57.09;102147.47;5095255;28;20083;-74
2021/10/17 10:31:40;;;;;;;16.52;6.75;;;;;;;14.73;55.40;102144.84;5094802;28;20063;-73
2021/10/17 10:34:09;;;;;;;18.50;6.97;;;;;;;14.85;55.48;102147.44;5094837;28;20035;-73
2021/10/17 10:36:40;;;;;;;14.25;6.68;;;;;;;14.80;56.66;102147.84;5095452;28;20020;-74
2021/10/17 10:39:08;;;;;;;14.38;6.63;;;;;;;14.59;58.15;102148.69;5094959;28;20103;-74
2021/10/17 10:41:44;;;;;;;13.75;6.00;;;;;;;14.29;58.94;102153.03;5095911;28;20034;-73
2021/10/17 10:44:18;;;;;;;13.40;6.57;;;;;;;14.16;58.32;102152.41;5094910;28;20028;-74
2021/10/17 10:46:44;;;;;;;17.02;6.07;;;;;;;13.86;58.88;102143.31;5095878;28;20412;-72
2021/10/17 10:49:10;;;;;;;13.90;6.82;;;;;;;13.72;60.49;102141.81;5094654;28;20066;-74
2021/10/17 10:51:47;;;;;;;17.30;6.65;;;;;;;13.64;61.90;102146.09;5095235;28;20027;-74
2021/10/17 10:54:25;;;;;;;15.40;6.60;;;;;;;13.62;62.63;102148.88;5076564;28;20345;-76
2021/10/17 10:56:58;;;;;;;11.55;6.25;;;;;;;13.61;63.08;102152.53;5095282;28;20028;-76
2021/10/17 10:59:28;;;;;;;13.10;5.47;;;;;;;13.68;60.38;102151.03;5094604;28;20534;-77
2021/10/17 11:02:21;;;;;;;20.45;6.55;;;;;;;13.59;60.99;102154.50;5095325;28;20077;-77
2021/10/17 11:04:46;;;;;;;15.70;6.05;;;;;;;13.58;62.50;102153.66;5090968;28;20032;-76
2021/10/17 11:07:16;;;;;;;16.88;5.70;;;;;;;13.62;61.59;102142.69;5094345;28;20027;-78
2021/10/17 11:09:41;;;;;;;15.68;5.90;;;;;;;13.47;61.62;102140.31;5076871;28;20475;-77
2021/10/17 11:12:08;;;;;;;11.88;5.28;;;;;;;13.49;62.82;102137.50;5094278;28;20032;-78
2021/10/17 11:14:33;;;;;;;10.68;4.97;;;;;;;13.45;63.55;102144.94;5076661;28;20372;-77
2021/10/17 11:17:06;;;;;;;14.18;5.60;;;;;;;13.49;61.33;102142.84;5094876;28;20024;-76
2021/10/17 11:19:33;;;;;;;8.50;4.75;;;;;;;13.55;62.39;102137.00;5094643;28;20448;-78